Time;durP1;ratioP1;P1;durP2;ratioP2;P2;SDS_P1;SDS_P2;PMS_P1;PMS_P2;Temp;Humidity;BMP_temperature;BMP_pressure;BME280_temperature;BME280_humidity;BME280_pressure;Samples;Min_cycle;Max_cycle;Signal;HPM_P1;HPM_P2
2022/07/25 00:00:29;;;;;;;;;;;20.70;99.90;;;;;;6272600;22;20018;-90
2022/07/25 00:02:55;;;;;;;4.40;1.48;;;20.70;99.90;;;;;;6273163;22;19903;-91
2022/07/25 00:05:21;;;;;;;3.33;2.10;;;20.60;99.90;;;;;;6246286;22;20494;-91
2022/07/25 00:07:47;;;;;;;3.28;1.50;;;20.50;99.90;;;;;;6273333;22;19999;-89
2022/07/25 00:10:13;;;;;;;4.50;1.50;;;20.40;99.90;;;;;;6246874;22;20056;-86
2022/07/25 00:12:40;;;;;;;2.20;1.40;;;20.30;99.90;;;;;;6274036;22;20030;-92
2022/07/25 00:15:07;;;;;;;3.00;1.70;;;20.30;99.90;;;;;;6272438;22;20501;-88
2022/07/25 00:17:33;;;;;;;7.55;1.92;;;20.10;99.90;;;;;;6273567;22;20473;-87
2022/07/25 00:19:59;;;;;;;1.65;1.50;;;20.20;99.90;;;;;;6246411;22;20007;-91
2022/07/25 00:22:24;;;;;;;8.77;1.83;;;20.20;99.90;;;;;;6240888;23;20020;-93
2022/07/25 00:24:50;;;;;;;3.38;1.67;;;20.20;99.90;;;;;;6240990;23;20000;-88
2022/07/25 00:27:17;;;;;;;2.67;1.70;;;20.10;99.90;;;;;;6240919;23;20027;-93
2022/07/25 00:29:43;;;;;;;3.35;1.45;;;20.10;99.90;;;;;;6243195;23;20000;-86
2022/07/25 00:32:09;;;;;;;3.33;1.75;;;20.10;99.90;;;;;;6241937;23;20004;-93
2022/07/25 00:34:35;;;;;;;5.85;1.75;;;20.00;99.90;;;;;;6242612;22;20000;-92
2022/07/25 00:37:00;;;;;;;6.50;1.70;;;20.00;99.90;;;;;;6242228;23;20004;-90
2022/07/25 00:39:26;;;;;;;3.08;1.80;;;19.90;99.90;;;;;;6241669;22;19996;-87
2022/07/25 00:41:52;;;;;;;2.97;1.88;;;19.90;99.90;;;;;;6239798;23;20012;-89
2022/07/25 00:44:23;;;;;;;2.00;1.50;;;19.90;99.90;;;;;;6241386;23;20027;-88
2022/07/25 00:46:49;;;;;;;2.63;1.50;;;19.90;99.90;;;;;;6241425;23;20090;-87
2022/07/25 00:49:14;;;;;;;3.08;1.75;;;19.80;99.90;;;;;;6242190;22;20000;-90
2022/07/25 00:51:40;;;;;;;4.75;1.50;;;19.80;99.90;;;;;;6242418;23;20452;-89
2022/07/25 00:54:06;;;;;;;4.35;2.05;;;;;;;;;;6242359;23;20031;-86
2022/07/25 00:56:32;;;;;;;2.63;1.50;;;19.70;99.90;;;;;;6239846;23;20004;-87
2022/07/25 00:58:57;;;;;;;2.55;1.50;;;19.70;99.90;;;;;;6265310;22;20032;-87
2022/07/25 01:01:23;;;;;;;3.47;1.70;;;19.60;99.90;;;;;;6240924;23;20452;-89
2022/07/25 01:03:49;;;;;;;4.45;1.50;;;19.60;99.90;;;;;;6241677;22;19996;-87
2022/07/25 01:06:15;;;;;;;5.78;1.80;;;19.60;99.90;;;;;;6242281;23;20429;-91
2022/07/25 01:08:41;;;;;;;3.08;1.70;;;19.50;99.90;;;;;;6243572;23;20071;-90
2022/07/25 01:11:08;;;;;;;2.53;1.75;;;19.50;99.90;;;;;;6242523;22;20000;-91
2022/07/25 01:13:34;;;;;;;3.35;1.60;;;19.40;99.90;;;;;;6240409;23;20008;-89
2022/07/25 01:15:59;;;;;;;3.45;1.70;;;19.50;99.90;;;;;;6241905;22;20027;-90
2022/07/25 01:18:25;;;;;;;3.13;1.58;;;19.40;99.90;;;;;;6241912;23;20000;-91
2022/07/25 01:20:51;;;;;;;5.10;1.80;;;19.40;99.90;;;;;;6241570;23;20049;-92
2022/07/25 01:23:16;;;;;;;4.55;1.67;;;19.40;99.90;;;;;;6266471;22;20441;-90
2022/07/25 01:25:42;;;;;;;3.75;1.90;;;19.40;99.90;;;;;;6243275;23;20000;-91
2022/07/25 01:28:08;;;;;;;3.55;1.80;;;19.50;99.90;;;;;;6243143;22;20000;-92
2022/07/25 01:30:34;;;;;;;4.43;1.70;;;19.50;99.90;;;;;;6241728;23;20004;-89
2022/07/25 01:33:00;;;;;;;7.57;1.70;;;19.50;99.90;;;;;;6242138;22;20001;-90
2022/07/25 01:35:26;;;;;;;4.28;1.40;;;;;;;;;;6239424;23;20051;-90
2022/07/25 01:37:51;;;;;;;6.22;1.60;;;19.40;99.90;;;;;;6241352;23;20060;-84
2022/07/25 01:40:17;;;;;;;3.95;1.60;;;19.40;99.90;;;;;;6240285;22;20035;-87
2022/07/25 01:42:43;;;;;;;5.28;1.70;;;19.40;99.90;;;;;;6242308;23;20004;-86
2022/07/25 01:45:10;;;;;;;4.63;1.80;;;19.40;99.90;;;;;;6243541;23;19996;-89
2022/07/25 01:47:36;;;;;;;3.63;1.58;;;19.40;99.90;;;;;;6242802;22;20008;-85
2022/07/25 01:50:02;;;;;;;4.75;1.63;;;19.40;99.90;;;;;;6243077;22;20075;-88
2022/07/25 01:52:28;;;;;;;4.22;1.80;;;19.40;99.90;;;;;;6242193;22;20015;-91
2022/07/25 01:54:54;;;;;;;2.70;1.40;;;19.50;99.90;;;;;;6267395;22;20004;-91
2022/07/25 01:57:21;;;;;;;6.32;1.77;;;19.50;99.90;;;;;;6242747;22;20058;-88
2022/07/25 01:59:47;;;;;;;4.65;1.60;;;19.50;99.90;;;;;;6242005;23;20004;-87
2022/07/25 02:02:13;;;;;;;2.35;1.55;;;19.50;99.90;;;;;;6244298;23;20040;-90
2022/07/25 02:04:39;;;;;;;2.65;1.70;;;19.50;99.90;;;;;;6243138;23;20000;-86
2022/07/25 02:07:04;;;;;;;2.83;1.58;;;19.50;99.90;;;;;;6242912;22;20008;-89
2022/07/25 02:09:30;;;;;;;3.28;1.75;;;19.40;99.90;;;;;;6243344;22;20043;-85
2022/07/25 02:11:56;;;;;;;3.10;1.38;;;19.50;99.90;;;;;;6243111;23;20008;-86
2022/07/25 02:14:22;;;;;;;4.03;1.50;;;19.40;99.90;;;;;;6242850;22;20496;-86
2022/07/25 02:16:48;;;;;;;2.50;1.45;;;19.40;99.90;;;;;;6240873;23;20015;-85
2022/07/25 02:19:14;;;;;;;1.85;1.40;;;19.50;99.90;;;;;;6243081;22;19996;-86
2022/07/25 02:21:40;;;;;;;4.95;1.83;;;19.40;99.90;;;;;;6249563;22;20019;-86
2022/07/25 02:24:06;;;;;;;4.38;1.75;;;19.40;99.90;;;;;;6272925;22;20003;-87
2022/07/25 02:26:32;;;;;;;3.28;1.80;;;19.40;99.90;;;;;;6273121;22;20023;-88
2022/07/25 02:28:58;;;;;;;2.88;1.42;;;19.40;99.90;;;;;;6273307;22;19996;-87
2022/07/25 02:31:23;;;;;;;4.10;1.73;;;19.40;99.90;;;;;;6273405;22;20003;-87
2022/07/25 02:33:49;;;;;;;2.20;1.50;;;19.40;99.90;;;;;;6273030;22;20000;-86
2022/07/25 02:36:15;;;;;;;7.40;1.70;;;19.40;99.90;;;;;;6273650;22;20006;-85
2022/07/25 02:38:41;;;;;;;3.83;1.80;;;19.40;99.90;;;;;;6274707;22;20063;-90
2022/07/25 02:41:07;;;;;;;3.25;1.60;;;19.40;99.90;;;;;;6245946;22;20016;-88
2022/07/25 02:43:33;;;;;;;4.07;1.60;;;19.40;99.90;;;;;;6273268;22;19996;-91
2022/07/25 02:45:59;;;;;;;2.75;1.58;;;19.40;99.90;;;;;;6272372;22;20050;-90
2022/07/25 02:48:24;;;;;;;3.47;1.50;;;19.50;99.90;;;;;;6273035;22;20309;-88
2022/07/25 02:50:50;;;;;;;3.10;1.75;;;19.60;99.90;;;;;;6245237;22;20007;-88
2022/07/25 02:53:16;;;;;;;4.82;1.52;;;19.70;99.90;;;;;;6272327;22;20012;-87
2022/07/25 02:55:41;;;;;;;3.25;1.80;;;19.70;99.90;;;;;;6274349;22;19996;-87
2022/07/25 02:58:07;;;;;;;3.10;1.70;;;19.70;99.90;;;;;;6272925;22;20010;-88
2022/07/25 03:00:33;;;;;;;3.78;1.70;;;19.80;99.90;;;;;;6245908;22;20007;-88
2022/07/25 03:02:59;;;;;;;7.72;1.73;;;19.80;99.90;;;;;;6272731;22;20003;-86
2022/07/25 03:05:24;;;;;;;4.40;1.80;;;19.80;99.90;;;;;;6272663;22;20000;-91
2022/07/25 03:07:50;;;;;;;2.67;1.52;;;19.80;99.90;;;;;;6272483;22;20010;-90
2022/07/25 03:10:16;;;;;;;3.28;1.70;;;19.90;99.90;;;;;;6273618;22;20344;-87
2022/07/25 03:12:43;;;;;;;4.75;1.63;;;19.90;99.90;;;;;;6246883;22;20028;-87
2022/07/25 03:15:10;;;;;;;5.63;1.50;;;19.90;99.90;;;;;;6245330;22;20014;-91
2022/07/25 03:17:37;;;;;;;6.30;1.88;;;;;;;;;;6273134;22;20607;-88
2022/07/25 03:20:04;;;;;;;2.47;1.60;;;20.10;99.90;;;;;;6272331;22;20061;-88
2022/07/25 03:22:30;;;;;;;3.10;1.55;;;20.10;99.90;;;;;;6271981;22;20012;-86
2022/07/25 03:24:56;;;;;;;2.60;1.50;;;20.10;99.90;;;;;;6272497;22;20342;-87
2022/07/25 03:27:21;;;;;;;3.95;1.60;;;20.10;99.90;;;;;;6245024;22;20093;-86
2022/07/25 03:29:47;;;;;;;2.90;1.45;;;20.20;99.90;;;;;;6272628;22;19996;-87
2022/07/25 03:32:13;;;;;;;3.17;1.33;;;20.20;99.90;;;;;;6273173;22;20508;-86
2022/07/25 03:34:39;;;;;;;3.25;1.60;;;20.30;99.90;;;;;;6272228;22;20027;-89
2022/07/25 03:37:04;;;;;;;2.92;1.45;;;20.30;99.90;;;;;;6272233;22;20071;-89
2022/07/25 03:39:30;;;;;;;2.40;1.52;;;20.30;99.90;;;;;;6273217;22;20310;-88
2022/07/25 03:41:56;;;;;;;3.83;1.50;;;20.30;99.90;;;;;;6246275;22;20448;-90
2022/07/25 03:44:23;;;;;;;2.85;1.60;;;20.40;99.90;;;;;;6246500;22;20061;-90
2022/07/25 03:46:50;;;;;;;6.28;1.70;;;20.30;99.90;;;;;;6272831;22;20340;-90
2022/07/25 03:49:16;;;;;;;3.55;1.60;;;20.30;99.90;;;;;;6273359;22;20188;-88
2022/07/25 03:51:42;;;;;;;2.78;1.38;;;20.40;99.90;;;;;;6272085;22;20070;-90
2022/07/25 03:54:12;;;;;;;2.25;1.40;;;20.40;99.90;;;;;;6272526;22;19996;-86
2022/07/25 03:56:45;;;;;;;3.38;1.45;;;20.30;99.90;;;;;;6271665;22;20011;-86
2022/07/25 03:59:13;;;;;;;3.25;1.40;;;20.40;99.90;;;;;;6272009;22;20057;-87
2022/07/25 04:01:40;;;;;;;5.32;1.60;;;20.40;99.90;;;;;;6271905;22;20220;-85
2022/07/25 04:04:06;;;;;;;5.28;1.40;;;20.40;99.90;;;;;;6271847;22;20003;-86
2022/07/25 04:06:32;;;;;;;2.05;1.30;;;20.40;99.90;;;;;;6271734;22;20440;-86
2022/07/25 04:08:58;;;;;;;1.55;1.40;;;20.40;99.90;;;;;;6271848;22;20000;-86
2022/07/25 04:11:24;;;;;;;2.42;1.75;;;20.30;99.90;;;;;;6245179;22;20083;-87
2022/07/25 04:13:50;;;;;;;4.30;1.65;;;20.30;99.90;;;;;;6272578;22;20003;-88
2022/07/25 04:16:17;;;;;;;3.67;1.70;;;20.30;99.90;;;;;;6245976;22;20016;-86
2022/07/25 04:18:43;;;;;;;3.22;1.70;;;20.30;99.90;;;;;;6272182;22;19995;-87
2022/07/25 04:21:09;;;;;;;3.42;1.80;;;20.30;99.90;;;;;;6245288;22;20018;-89
2022/07/25 04:23:35;;;;;;;4.03;1.80;;;20.30;99.90;;;;;;6272194;22;20091;-87
2022/07/25 04:26:01;;;;;;;5.45;1.60;;;20.30;99.90;;;;;;6271803;22;20010;-88
2022/07/25 04:28:28;;;;;;;3.33;1.52;;;20.30;99.90;;;;;;6271862;22;20075;-88
2022/07/25 04:30:53;;;;;;;5.85;1.70;;;20.30;99.90;;;;;;6271146;22;20023;-88
2022/07/25 04:33:20;;;;;;;3.05;1.70;;;20.30;99.90;;;;;;6245602;22;20452;-86
2022/07/25 04:35:46;;;;;;;6.35;1.70;;;20.30;99.90;;;;;;6272933;22;20026;-87
2022/07/25 04:38:12;;;;;;;4.15;1.80;;;20.20;99.90;;;;;;6244494;22;20053;-85
2022/07/25 04:40:38;;;;;;;3.42;1.70;;;20.20;99.90;;;;;;6271612;22;20000;-87
2022/07/25 04:43:04;;;;;;;3.25;1.88;;;;;;;;;;6244310;22;20062;-85
2022/07/25 04:45:31;;;;;;;4.70;1.70;;;20.20;99.90;;;;;;6271682;22;20069;-86
2022/07/25 04:47:57;;;;;;;2.88;1.70;;;20.10;99.90;;;;;;6244287;22;20011;-87
2022/07/25 04:50:23;;;;;;;3.28;1.80;;;20.10;99.90;;;;;;6244405;22;20000;-85
2022/07/25 04:52:49;;;;;;;7.63;2.05;;;20.10;99.90;;;;;;6245454;22;20015;-87
2022/07/25 04:55:15;;;;;;;4.40;1.90;;;20.10;99.90;;;;;;6271678;22;19999;-87
2022/07/25 04:57:41;;;;;;;3.58;2.03;;;20.10;99.90;;;;;;6271540;22;20077;-85
2022/07/25 05:00:09;;;;;;;5.20;2.08;;;20.10;99.90;;;;;;6271302;22;20341;-86
2022/07/25 05:02:35;;;;;;;3.08;2.10;;;20.10;99.90;;;;;;6271516;22;20065;-86
2022/07/25 05:05:02;;;;;;;3.65;2.13;;;20.20;99.90;;;;;;6271414;22;20062;-87
2022/07/25 05:07:27;;;;;;;4.88;2.00;;;20.20;99.90;;;;;;6271532;22;20057;-88
2022/07/25 05:09:53;;;;;;;6.45;2.15;;;20.30;99.90;;;;;;6244879;22;20083;-84
2022/07/25 05:12:19;;;;;;;4.38;2.28;;;20.30;99.90;;;;;;6245152;22;20337;-86
2022/07/25 05:14:45;;;;;;;4.65;2.15;;;20.40;99.90;;;;;;6271857;22;20000;-88
2022/07/25 05:17:11;;;;;;;4.50;2.10;;;20.40;99.90;;;;;;6270510;22;20050;-87
2022/07/25 05:19:37;;;;;;;6.95;2.10;;;20.50;99.90;;;;;;6273881;22;20075;-87
2022/07/25 05:22:03;;;;;;;3.50;2.20;;;20.50;99.90;;;;;;6273640;22;20095;-88
2022/07/25 05:24:35;;;;;;;5.53;2.08;;;20.50;99.90;;;;;;6246520;22;19999;-87
2022/07/25 05:27:02;;;;;;;3.72;2.28;;;20.50;99.90;;;;;;6273775;22;20006;-89
2022/07/25 05:29:28;;;;;;;5.88;2.05;;;;;;;;;;6246130;22;20064;-87
2022/07/25 05:31:54;;;;;;;4.50;2.40;;;20.40;99.90;;;;;;6273951;22;20004;-87
2022/07/25 05:34:20;;;;;;;4.63;2.20;;;20.30;99.90;;;;;;6247390;22;20004;-87
2022/07/25 05:36:46;;;;;;;4.15;2.20;;;20.30;99.90;;;;;;6273643;22;20398;-86
2022/07/25 05:39:12;;;;;;;6.18;2.40;;;20.30;99.90;;;;;;6273131;22;20000;-86
2022/07/25 05:41:37;;;;;;;5.25;2.30;;;20.30;99.90;;;;;;6245749;22;20022;-88
2022/07/25 05:44:03;;;;;;;8.80;2.05;;;20.30;99.90;;;;;;6273827;22;20023;-87
2022/07/25 05:46:32;;;;;;;6.22;2.30;;;20.40;99.90;;;;;;6273429;22;20000;-87
2022/07/25 05:48:57;;;;;;;5.75;2.40;;;20.50;99.90;;;;;;6273379;22;20003;-88
2022/07/25 05:51:23;;;;;;;6.38;2.47;;;20.40;99.90;;;;;;6274272;22;20003;-86
2022/07/25 05:53:49;;;;;;;4.57;2.60;;;20.40;99.90;;;;;;6246395;22;20387;-86
2022/07/25 05:56:14;;;;;;;6.05;2.60;;;20.30;99.90;;;;;;6273285;22;20470;-86
2022/07/25 05:58:41;;;;;;;6.45;2.50;;;20.30;99.90;;;;;;6245748;22;20322;-86
2022/07/25 06:01:07;;;;;;;5.47;2.50;;;20.30;99.90;;;;;;6273507;22;20147;-87
2022/07/25 06:03:33;;;;;;;5.65;2.53;;;20.20;99.90;;;;;;6273420;22;19995;-87
2022/07/25 06:05:59;;;;;;;7.78;2.75;;;20.20;99.90;;;;;;6246053;22;20003;-87
2022/07/25 06:08:27;;;;;;;6.72;2.63;;;20.10;99.90;;;;;;6247280;22;20078;-88
2022/07/25 06:10:53;;;;;;;10.40;2.70;;;20.10;99.90;;;;;;6274189;22;20003;-87
2022/07/25 06:13:19;;;;;;;5.95;2.42;;;20.10;99.90;;;;;;6245670;22;20075;-88
2022/07/25 06:15:45;;;;;;;4.82;2.65;;;20.10;99.90;;;;;;6272965;22;20019;-87
2022/07/25 06:18:10;;;;;;;4.47;2.88;;;20.00;99.90;;;;;;6245823;22;20326;-87
2022/07/25 06:20:36;;;;;;;9.02;2.80;;;20.00;99.90;;;;;;6245796;22;20057;-87
2022/07/25 06:23:03;;;;;;;7.95;2.95;;;19.90;99.90;;;;;;6272738;22;20459;-85
2022/07/25 06:25:29;;;;;;;5.85;2.60;;;19.90;99.90;;;;;;6245973;22;20396;-86
2022/07/25 06:27:55;;;;;;;6.10;2.38;;;19.90;99.90;;;;;;6246788;22;20008;-88
2022/07/25 06:30:21;;;;;;;7.22;2.83;;;20.00;99.90;;;;;;6272671;22;20380;-85
2022/07/25 06:32:48;;;;;;;9.98;3.05;;;20.10;99.90;;;;;;6246022;22;20535;-86
2022/07/25 06:35:14;;;;;;;8.40;3.17;;;20.00;99.90;;;;;;6272835;22;20012;-86
2022/07/25 06:37:40;;;;;;;9.25;2.97;;;20.00;99.90;;;;;;6246107;22;20008;-87
2022/07/25 06:40:06;;;;;;;8.15;2.83;;;20.00;99.90;;;;;;6245806;22;20507;-85
2022/07/25 06:42:36;;;;;;;9.18;2.90;;;20.00;99.90;;;;;;6245428;22;20066;-87
2022/07/25 06:45:04;;;;;;;8.23;2.97;;;20.00;99.90;;;;;;6245719;22;20027;-86
2022/07/25 06:47:29;;;;;;;7.05;2.75;;;20.00;99.90;;;;;;6272795;22;20004;-86
2022/07/25 06:49:55;;;;;;;9.13;3.10;;;20.00;99.90;;;;;;6274079;22;20045;-87
2022/07/25 06:52:21;;;;;;;8.20;3.05;;;20.00;99.90;;;;;;6272682;22;20074;-86
2022/07/25 06:54:47;;;;;;;11.93;3.05;;;20.10;99.90;;;;;;6272593;22;20034;-86
2022/07/25 06:57:13;;;;;;;10.40;3.03;;;20.10;99.90;;;;;;6245554;22;20003;-87
2022/07/25 06:59:39;;;;;;;9.23;2.92;;;20.30;99.90;;;;;;6245601;22;20008;-87
2022/07/25 07:02:04;;;;;;;8.27;2.92;;;20.40;99.90;;;;;;6245534;22;20016;-87
2022/07/25 07:04:30;;;;;;;8.75;3.15;;;20.50;99.90;;;;;;6272540;22;19999;-87
2022/07/25 07:06:56;;;;;;;9.27;3.03;;;20.50;99.90;;;;;;6273560;22;20375;-86
2022/07/25 07:09:21;;;;;;;10.18;3.00;;;20.50;99.90;;;;;;6272570;22;20443;-87
2022/07/25 07:11:47;;;;;;;8.30;3.00;;;20.50;99.90;;;;;;6245297;22;20444;-86
2022/07/25 07:14:13;;;;;;;9.50;3.17;;;20.50;99.90;;;;;;6272561;22;20003;-88
2022/07/25 07:16:40;;;;;;;9.65;2.90;;;20.50;99.90;;;;;;6272308;22;20494;-86
2022/07/25 07:19:05;;;;;;;10.10;2.67;;;20.60;99.90;;;;;;6272027;22;20340;-87
2022/07/25 07:21:31;;;;;;;9.10;3.08;;;20.60;99.90;;;;;;6271917;22;20019;-89
2022/07/25 07:23:57;;;;;;;10.18;2.90;;;20.60;99.90;;;;;;6273475;22;20412;-87
2022/07/25 07:26:22;;;;;;;10.02;3.45;;;20.50;99.90;;;;;;6245691;22;20081;-86
2022/07/25 07:28:48;;;;;;;6.95;3.05;;;20.40;99.90;;;;;;6273165;22;20030;-87
2022/07/25 07:31:16;;;;;;;9.85;3.05;;;20.50;99.90;;;;;;6245743;22;20382;-86
2022/07/25 07:33:42;;;;;;;11.95;3.35;;;20.50;99.90;;;;;;6272770;22;19999;-86
2022/07/25 07:36:09;;;;;;;9.63;3.03;;;20.50;99.90;;;;;;6272431;22;20094;-86
2022/07/25 07:38:35;;;;;;;9.35;3.10;;;20.50;99.90;;;;;;6245001;22;20004;-84
2022/07/25 07:41:01;;;;;;;5.90;2.75;;;20.70;99.90;;;;;;6272743;22;20015;-87
2022/07/25 07:43:29;;;;;;;8.65;3.17;;;20.80;99.90;;;;;;6273531;22;20000;-86
2022/07/25 07:45:55;;;;;;;7.88;2.50;;;20.80;99.90;;;;;;6245577;22;20014;-87
2022/07/25 07:48:21;;;;;;;6.82;2.47;;;20.90;99.90;;;;;;6245441;22;20336;-87
2022/07/25 07:50:48;;;;;;;6.32;2.58;;;20.90;99.90;;;;;;6245265;22;20134;-86
2022/07/25 07:53:14;;;;;;;17.45;3.38;;;20.90;99.90;;;;;;6245251;22;20015;-86
2022/07/25 07:55:42;;;;;;;11.68;2.65;;;21.10;99.90;;;;;;6272823;22;20000;-87
2022/07/25 07:58:16;;;;;;;6.90;2.67;;;21.30;99.90;;;;;;6245502;22;20057;-87
2022/07/25 08:00:44;;;;;;;5.70;2.58;;;21.30;99.90;;;;;;6245827;22;20018;-86
2022/07/25 08:03:10;;;;;;;5.05;2.05;;;21.30;99.90;;;;;;6272603;22;20011;-85
2022/07/25 08:05:38;;;;;;;8.35;2.40;;;21.20;99.90;;;;;;6272021;22;20000;-86
2022/07/25 08:08:06;;;;;;;5.57;2.10;;;21.10;99.90;;;;;;6272573;22;20004;-88
2022/07/25 08:10:35;;;;;;;8.70;2.53;;;21.10;99.90;;;;;;6246580;22;20428;-86
2022/07/25 08:13:11;;;;;;;10.50;2.70;;;21.10;99.90;;;;;;6246563;22;20003;-87
2022/07/25 08:15:37;;;;;;;7.55;2.50;;;;;;;;;;6272453;22;20026;-87
2022/07/25 08:18:03;;;;;;;8.65;2.50;;;21.10;99.90;;;;;;6272539;22;19999;-86
2022/07/25 08:20:29;;;;;;;8.82;2.45;;;21.00;99.90;;;;;;6273092;22;20003;-87
2022/07/25 08:22:56;;;;;;;8.50;2.15;;;21.00;99.90;;;;;;6271923;22;20008;-86
2022/07/25 08:25:21;;;;;;;6.03;2.40;;;21.00;99.90;;;;;;6272361;22;20000;-86
2022/07/25 08:27:48;;;;;;;6.53;2.33;;;21.00;99.90;;;;;;6244938;22;20329;-85
2022/07/25 08:30:16;;;;;;;9.18;2.67;;;21.00;99.90;;;;;;6272520;22;20023;-87
2022/07/25 08:32:47;;;;;;;6.65;2.45;;;21.00;99.90;;;;;;6245116;22;20121;-85
2022/07/25 08:35:13;;;;;;;8.82;2.20;;;21.10;99.90;;;;;;6245284;22;20010;-86
2022/07/25 08:37:39;;;;;;;9.13;2.33;;;;;;;;;;6272133;22;20004;-87
2022/07/25 08:40:05;;;;;;;7.28;2.50;;;21.10;99.90;;;;;;6245425;22;20011;-85
2022/07/25 08:42:32;;;;;;;6.78;2.55;;;21.10;99.90;;;;;;6245996;22;20015;-87
2022/07/25 08:45:01;;;;;;;8.50;2.58;;;21.00;99.90;;;;;;6244882;22;20000;-86
2022/07/25 08:47:28;;;;;;;6.88;2.53;;;20.90;99.90;;;;;;6244792;22;20436;-85
2022/07/25 08:49:55;;;;;;;8.07;2.97;;;20.90;99.90;;;;;;6244983;22;20011;-85
2022/07/25 08:52:21;;;;;;;9.68;2.80;;;21.00;99.90;;;;;;6245948;22;20035;-85
2022/07/25 08:54:48;;;;;;;11.32;2.85;;;21.10;99.90;;;;;;6274432;22;20008;-87
2022/07/25 08:57:14;;;;;;;9.90;2.42;;;21.20;99.90;;;;;;6247589;22;19999;-88
2022/07/25 08:59:40;;;;;;;6.88;2.58;;;21.50;99.90;;;;;;6247752;22;20023;-87
2022/07/25 09:02:09;;;;;;;9.52;2.45;;;21.90;99.90;;;;;;6273680;22;20018;-87
2022/07/25 09:04:36;;;;;;;10.38;2.55;;;22.10;99.90;;;;;;6274908;22;19996;-87
2022/07/25 09:07:03;;;;;;;12.80;2.37;;;22.10;99.90;;;;;;6248019;22;20004;-88
2022/07/25 09:09:37;;;;;;;10.98;2.40;;;22.00;99.90;;;;;;6246889;22;20000;-87
2022/07/25 09:12:06;;;;;;;10.77;2.10;;;21.90;99.90;;;;;;6274870;22;19996;-87
2022/07/25 09:14:41;;;;;;;5.20;1.85;;;21.70;99.90;;;;;;6274501;22;20432;-89
2022/07/25 09:17:07;;;;;;;12.18;2.17;;;21.70;99.90;;;;;;6273682;22;20053;-87
2022/07/25 09:19:32;;;;;;;7.10;2.10;;;22.80;99.90;;;;;;6247409;22;20008;-87
2022/07/25 09:22:01;;;;;;;5.95;1.70;;;21.90;99.90;;;;;;6241176;23;20020;-86
2022/07/25 09:24:27;;;;;;;7.35;1.70;;;22.00;99.90;;;;;;6241071;23;20282;-87
2022/07/25 09:26:56;;;;;;;7.20;1.70;;;22.00;99.90;;;;;;6241162;23;20349;-87
2022/07/25 09:29:32;;;;;;;5.70;1.73;;;22.20;99.90;;;;;;6241474;23;20007;-87
2022/07/25 09:32:00;;;;;;;24.33;2.22;;;22.20;99.90;;;;;;6241429;23;20012;-87
2022/07/25 09:34:37;;;;;;;4.38;1.55;;;22.20;99.90;;;;;;6242950;22;20024;-87
2022/07/25 09:37:05;;;;;;;5.90;1.77;;;22.20;99.90;;;;;;6244346;22;20004;-87
2022/07/25 09:39:40;;;;;;;8.43;1.83;;;22.20;99.90;;;;;;6241391;23;20107;-86
2022/07/25 09:42:20;;;;;;;4.25;1.80;;;22.30;99.90;;;;;;6242334;23;20043;-86
2022/07/25 09:45:05;;;;;;;3.70;1.50;;;22.50;99.90;;;;;;6241809;23;20000;-87
2022/07/25 09:47:34;;;;;;;3.90;1.40;;;22.70;99.90;;;;;;6243309;23;20004;-87
2022/07/25 09:50:00;;;;;;;7.10;1.58;;;22.90;99.90;;;;;;6241542;23;20004;-87
2022/07/25 09:52:26;;;;;;;4.88;1.75;;;22.90;99.90;;;;;;6243579;23;20071;-87
2022/07/25 09:54:53;;;;;;;3.90;1.70;;;23.00;99.90;;;;;;6243453;22;20043;-87
2022/07/25 09:57:20;;;;;;;5.90;1.80;;;23.00;99.90;;;;;;6241719;23;20008;-87
2022/07/25 09:59:46;;;;;;;6.13;1.70;;;23.00;99.90;;;;;;6242966;22;20000;-87
2022/07/25 10:02:48;;;;;;;6.18;1.50;;;22.90;99.90;;;;;;6243252;23;20453;-87
2022/07/25 10:05:17;;;;;;;7.30;1.77;;;22.80;99.90;;;;;;6242892;23;20000;-88
2022/07/25 10:07:46;;;;;;;5.25;1.65;;;22.80;99.90;;;;;;6243256;23;20000;-88
2022/07/25 10:10:27;;;;;;;8.02;1.70;;;22.80;99.90;;;;;;6243023;22;20563;-86
2022/07/25 10:13:14;;;;;;;6.72;1.80;;;22.80;99.90;;;;;;6242749;22;20000;-89
2022/07/25 10:15:48;;;;;;;6.90;1.80;;;22.90;99.90;;;;;;6243542;22;20007;-87
2022/07/25 10:18:15;;;;;;;10.68;2.13;;;23.00;99.90;;;;;;6243212;23;19996;-87
2022/07/25 10:20:42;;;;;;;10.73;2.17;;;23.00;99.90;;;;;;6242942;22;20004;-87
2022/07/25 10:23:25;;;;;;;8.18;1.90;;;23.00;99.90;;;;;;6242013;23;20251;-87
2022/07/25 10:26:15;;;;;;;5.70;1.77;;;22.90;99.90;;;;;;6241851;23;20337;-88
2022/07/25 10:28:48;;;;;;;6.88;1.80;;;23.10;99.90;;;;;;6240540;23;20007;-86
2022/07/25 10:31:26;;;;;;;10.57;1.70;;;23.10;99.90;;;;;;6242487;22;20004;-88
2022/07/25 10:33:57;;;;;;;5.03;1.73;;;23.30;99.90;;;;;;6241177;23;20441;-88
2022/07/25 10:36:31;;;;;;;6.90;1.95;;;23.40;99.90;;;;;;6241496;23;20058;-89
2022/07/25 10:38:59;;;;;;;6.97;1.90;;;23.30;99.90;;;;;;6241324;23;20453;-86
2022/07/25 10:41:27;;;;;;;7.82;1.70;;;23.30;99.90;;;;;;6241439;23;20467;-87
2022/07/25 10:43:58;;;;;;;2.85;1.35;;;23.50;99.90;;;;;;6242308;23;20004;-88
2022/07/25 10:46:26;;;;;;;8.73;2.08;;;23.80;99.90;;;;;;6243388;22;20011;-88
2022/07/25 10:49:03;;;;;;;10.07;2.60;;;24.10;99.90;;;;;;6243413;23;20134;-87
2022/07/25 10:51:33;;;;;;;7.18;1.95;;;24.40;99.90;;;;;;6243346;22;19996;-87
2022/07/25 10:53:59;;;;;;;9.88;1.40;;;24.40;99.90;;;;;;6243216;22;20004;-88
2022/07/25 10:56:27;;;;;;;4.32;1.40;;;24.10;99.90;;;;;;6242600;22;19996;-87
2022/07/25 10:59:00;;;;;;;8.30;1.50;;;24.00;99.90;;;;;;6242333;22;20004;-87
2022/07/25 11:01:31;;;;;;;6.47;1.80;;;24.10;99.90;;;;;;6240707;23;20022;-87
2022/07/25 11:04:02;;;;;;;8.52;1.70;;;24.10;99.90;;;;;;6242674;22;20119;-88
2022/07/25 11:06:31;;;;;;;5.22;1.60;;;23.70;99.90;;;;;;6243086;22;20004;-87
2022/07/25 11:08:59;;;;;;;7.53;1.60;;;23.70;99.90;;;;;;6242320;22;20000;-87
2022/07/25 11:11:39;;;;;;;4.32;1.50;;;23.40;99.90;;;;;;6242167;22;20455;-89
2022/07/25 11:14:13;;;;;;;7.70;1.17;;;23.30;99.90;;;;;;6240402;23;20011;-87
2022/07/25 11:16:39;;;;;;;5.75;1.23;;;23.20;99.90;;;;;;6243374;22;20000;-86
2022/07/25 11:19:18;;;;;;;3.28;1.20;;;23.10;99.90;;;;;;6242606;23;20000;-87
2022/07/25 11:21:53;;;;;;;3.40;1.33;;;23.10;99.90;;;;;;6248939;22;20076;-88
2022/07/25 11:24:19;;;;;;;5.78;1.60;;;23.10;99.90;;;;;;6245940;22;20034;-89
2022/07/25 11:26:52;;;;;;;2.38;0.88;;;23.40;99.90;;;;;;6245144;22;20007;-86
2022/07/25 11:29:23;;;;;;;10.60;1.58;;;23.20;99.90;;;;;;6272533;22;20470;-87
2022/07/25 11:31:57;;;;;;;2.95;1.30;;;24.90;99.90;;;;;;6245204;22;20054;-87
2022/07/25 11:34:26;;;;;;;3.70;1.27;;;23.70;99.90;;;;;;6272830;22;20067;-87
2022/07/25 11:36:55;;;;;;;4.28;1.20;;;23.60;99.90;;;;;;6245345;22;20031;-87
2022/07/25 11:39:27;;;;;;;3.47;1.25;;;23.30;99.90;;;;;;6272552;22;19995;-86
2022/07/25 11:42:00;;;;;;;3.00;0.93;;;23.20;99.90;;;;;;6244588;22;20379;-87
2022/07/25 11:44:44;;;;;;;5.47;1.60;;;23.40;99.90;;;;;;6272070;22;20000;-87
2022/07/25 11:47:31;;;;;;;6.35;1.08;;;23.70;99.90;;;;;;6274078;22;20007;-87
2022/07/25 11:50:00;;;;;;;2.90;1.20;;;23.90;99.90;;;;;;6245842;22;20004;-88
2022/07/25 11:52:30;;;;;;;5.57;1.30;;;23.80;99.90;;;;;;6272936;22;20003;-88
2022/07/25 11:55:10;;;;;;;3.50;1.30;;;24.00;99.90;;;;;;6245590;22;20057;-88
2022/07/25 11:57:43;;;;;;;6.70;1.75;;;23.90;99.90;;;;;;6273174;22;19996;-88
2022/07/25 12:00:19;;;;;;;5.72;1.15;;;23.70;99.90;;;;;;6272563;22;20004;-87
2022/07/25 12:02:47;;;;;;;6.50;1.20;;;23.60;99.90;;;;;;6272271;22;20011;-87
2022/07/25 12:05:16;;;;;;;4.32;1.40;;;23.60;99.90;;;;;;6273722;22;19996;-88
2022/07/25 12:07:45;;;;;;;2.65;1.10;;;23.70;99.90;;;;;;6273773;22;20451;-89
2022/07/25 12:10:15;;;;;;;2.50;1.20;;;23.80;99.90;;;;;;6246368;22;20436;-88
2022/07/25 12:13:03;;;;;;;6.93;1.42;;;23.90;99.90;;;;;;6246239;22;20027;-89
2022/07/25 12:15:30;;;;;;;;;;;24.00;99.90;;;;;;6273057;22;20011;-87
2022/07/25 12:17:57;;;;;;;5.72;1.40;;;24.00;99.90;;;;;;6272460;22;19946;-88
2022/07/25 12:20:28;;;;;;;5.18;1.50;;;23.80;99.90;;;;;;6272502;22;20371;-87
2022/07/25 12:22:58;;;;;;;13.23;1.63;;;23.70;99.90;;;;;;6240655;23;20027;-88
2022/07/25 12:25:24;;;;;;;4.15;1.40;;;23.80;99.90;;;;;;6240415;23;20024;-90
2022/07/25 12:27:51;;;;;;;3.33;1.38;;;24.00;99.90;;;;;;6240300;23;20522;-87
2022/07/25 12:30:17;;;;;;;3.80;1.40;;;24.10;99.90;;;;;;6242043;22;20000;-87
2022/07/25 12:32:43;;;;;;;6.45;1.52;;;24.20;99.90;;;;;;6241831;23;20000;-87
2022/07/25 12:35:11;;;;;;;4.25;1.48;;;24.30;99.90;;;;;;6242551;23;20000;-89
2022/07/25 12:37:39;;;;;;;3.63;1.20;;;24.30;99.90;;;;;;6242435;22;20004;-88
2022/07/25 12:40:05;;;;;;;6.10;1.10;;;24.30;99.90;;;;;;6242241;22;20057;-88
2022/07/25 12:42:31;;;;;;;5.95;1.63;;;24.50;99.90;;;;;;6240462;23;20019;-88
2022/07/25 12:44:57;;;;;;;3.58;1.50;;;24.70;99.90;;;;;;6241678;22;19996;-87
2022/07/25 12:47:23;;;;;;;3.22;1.15;;;24.90;99.90;;;;;;6240684;23;20008;-86
2022/07/25 12:49:50;;;;;;;5.65;1.30;;;24.90;99.90;;;;;;6240605;23;20346;-88